Time;durP1;ratioP1;P1;durP2;ratioP2;P2;SDS_P1;SDS_P2;PMS_P1;PMS_P2;Temp;Humidity;BMP_temperature;BMP_pressure;BME280_temperature;BME280_humidity;BME280_pressure;Samples;Min_cycle;Max_cycle;Signal;HPM_P1;HPM_P2
2020/12/22 00:01:14;;;;;;;34.45;20.45;;;;;;;5.45;89.24;101442.44;5044897;28;20391;-80
2020/12/22 00:03:41;;;;;;;42.35;22.25;;;;;;;5.80;89.27;101503.63;5036760;28;20033;-80
2020/12/22 00:06:07;;;;;;;33.30;18.98;;;;;;;5.73;89.71;101488.91;5041790;28;20016;-80
2020/12/22 00:08:33;;;;;;;41.70;21.92;;;;;;;5.84;89.20;101509.72;5051814;28;20174;-80
2020/12/22 00:10:58;;;;;;;36.25;20.42;;;;;;;5.74;89.65;101495.09;5035481;28;20017;-80
2020/12/22 00:13:24;;;;;;;40.75;21.55;;;;;;;5.84;89.87;101512.38;5047154;28;20037;-80
2020/12/22 00:15:49;;;;;;;36.17;19.88;;;;;;;5.67;89.47;101486.53;5069914;28;20036;-79
2020/12/22 00:18:16;;;;;;;37.95;20.92;;;;;;;5.63;90.05;101484.97;5051068;28;20409;-79
2020/12/22 00:20:42;;;;;;;36.72;21.83;;;;;;;5.64;90.10;101494.66;5039013;28;20032;-79
2020/12/22 00:23:08;;;;;;;39.30;21.90;;;;;;;5.69;90.29;101513.06;5044694;28;20123;-80
2020/12/22 00:25:41;;;;;;;39.85;21.42;;;;;;;5.54;90.13;101479.22;5068809;28;20166;-80
2020/12/22 00:28:07;;;;;;;36.92;21.30;;;;;;;5.74;90.60;101519.91;5052021;28;20516;-80
2020/12/22 00:30:32;;;;;;;39.70;21.85;;;;;;;5.62;90.14;101490.38;5055708;28;20024;-80
2020/12/22 00:32:58;;;;;;;39.83;20.95;;;;;;;5.68;90.16;101498.91;5035491;28;20423;-80
2020/12/22 00:35:23;;;;;;;38.55;21.27;;;;;;;5.73;90.24;101517.31;5034806;28;20461;-80
2020/12/22 00:37:48;;;;;;;40.17;21.63;;;;;;;5.65;90.39;101495.53;5034821;28;20441;-80
2020/12/22 00:40:14;;;;;;;41.60;22.27;;;;;;;5.53;90.84;101470.38;5037168;28;20099;-80
2020/12/22 00:42:39;;;;;;;39.70;21.90;;;;;;;5.73;90.54;101509.31;5035217;28;20083;-80
2020/12/22 00:45:05;;;;;;;42.53;23.33;;;;;;;5.72;90.57;101513.81;5035627;28;20028;-80
2020/12/22 00:47:30;;;;;;;44.33;23.08;;;;;;;5.63;90.73;101492.09;5048822;28;20025;-80
2020/12/22 00:49:56;;;;;;;41.78;22.42;;;;;;;5.62;91.04;101482.38;5046572;28;20493;-80
2020/12/22 00:52:21;;;;;;;41.13;23.90;;;;;;;5.53;91.08;101459.75;5047028;28;20033;-80
2020/12/22 00:54:47;;;;;;;41.80;23.08;;;;;;;5.68;90.48;101484.75;5054264;28;20438;-80
2020/12/22 00:57:15;;;;;;;40.85;22.10;;;;;;;5.56;90.64;101466.72;5054683;28;20028;-80
2020/12/22 00:59:41;;;;;;;40.05;22.20;;;;;;;5.72;91.19;101489.84;5038476;28;20024;-80
2020/12/22 01:02:07;;;;;;;38.17;21.63;;;;;;;5.73;90.73;101482.69;5035472;28;20032;-80
2020/12/22 01:04:33;;;;;;;40.30;22.02;;;;;;;5.65;91.41;101466.25;5068197;28;20030;-80
2020/12/22 01:06:58;;;;;;;42.40;22.33;;;;;;;5.65;91.68;101458.28;5039241;28;20021;-80
2020/12/22 01:09:24;;;;;;;41.40;21.90;;;;;;;5.36;91.37;101424.25;5045887;28;20081;-80
2020/12/22 01:11:50;;;;;;;40.63;22.23;;;;;;;5.55;91.42;101459.69;5043632;28;20090;-80
2020/12/22 01:14:15;;;;;;;41.08;22.33;;;;;;;5.46;91.40;101438.84;5046754;28;20533;-80
2020/12/22 01:16:40;;;;;;;40.75;21.63;;;;;;;5.13;91.66;101360.69;5054937;28;20495;-80
2020/12/22 01:19:06;;;;;;;39.67;21.13;;;;;;;5.43;91.92;101423.03;5035075;28;20035;-80
2020/12/22 01:21:31;;;;;;;45.25;23.02;;;;;;;5.48;91.53;101443.13;5034737;28;20040;-80
2020/12/22 01:23:57;;;;;;;42.95;21.67;;;;;;;4.91;91.96;101336.97;5051890;28;20025;-80
2020/12/22 01:26:24;;;;;;;42.15;21.63;;;;;;;5.59;91.94;101471.88;5034407;28;20029;-80
2020/12/22 01:28:52;;;;;;;42.40;23.17;;;;;;;5.52;92.06;101450.06;5035067;28;20025;-80
2020/12/22 01:31:24;;;;;;;43.85;23.48;;;;;;;5.51;91.63;101448.31;5050253;28;20031;-80
2020/12/22 01:33:50;;;;;;;39.95;22.65;;;;;;;5.54;91.85;101464.13;5034135;28;20550;-80
2020/12/22 01:36:16;;;;;;;38.72;22.95;;;;;;;5.52;92.09;101451.84;5033557;28;20025;-80
2020/12/22 01:38:42;;;;;;;40.50;22.80;;;;;;;5.51;92.13;101447.47;5033126;28;20037;-80
2020/12/22 01:41:07;;;;;;;39.90;22.75;;;;;;;5.42;92.02;101424.81;5033604;28;20028;-82
2020/12/22 01:43:33;;;;;;;43.08;22.95;;;;;;;5.16;92.09;101374.69;5045612;28;20033;-82
2020/12/22 01:45:59;;;;;;;41.00;21.95;;;;;;;5.42;91.90;101418.66;5047296;28;20378;-82
2020/12/22 01:48:25;;;;;;;41.78;23.15;;;;;;;5.39;91.85;101413.47;5069568;28;20028;-82
2020/12/22 01:50:51;;;;;;;40.40;22.27;;;;;;;5.57;92.36;101442.69;5034329;28;20025;-82
2020/12/22 01:53:16;;;;;;;41.97;23.25;;;;;;;5.20;92.27;101384.25;5033563;28;20036;-82
2020/12/22 01:55:42;;;;;;;41.05;23.05;;;;;;;5.46;92.10;101431.72;5033773;28;20123;-82
2020/12/22 01:58:09;;;;;;;42.60;22.60;;;;;;;5.36;92.48;101401.19;5044236;28;20016;-82
2020/12/22 02:00:35;;;;;;;40.15;21.60;;;;;;;5.49;92.38;101412.97;5042223;28;20021;-82
2020/12/22 02:03:00;;;;;;;44.20;22.25;;;;;;;5.28;92.03;101374.09;5035134;28;20043;-82
2020/12/22 02:05:26;;;;;;;45.35;23.98;;;;;;;5.24;92.20;101361.03;5039907;28;20024;-82
2020/12/22 02:07:51;;;;;;;45.00;23.10;;;;;;;5.43;92.78;101393.75;5033457;28;20037;-82
2020/12/22 02:10:17;;;;;;;41.30;23.40;;;;;;;5.47;92.75;101404.19;5051580;28;20048;-82
2020/12/22 02:12:42;;;;;;;41.00;22.27;;;;;;;5.35;92.37;101401.28;5043483;28;20241;-82
2020/12/22 02:15:08;;;;;;;44.97;23.08;;;;;;;5.44;92.66;101438.91;5047328;28;20082;-82
2020/12/22 02:17:37;;;;;;;42.00;22.75;;;;;;;5.29;92.84;101414.88;5053693;28;20025;-82
2020/12/22 02:20:04;;;;;;;39.90;22.88;;;;;;;5.49;93.13;101444.88;5045208;28;20492;-82
2020/12/22 02:22:30;;;;;;;41.60;22.98;;;;;;;5.49;93.03;101428.91;5043542;28;20024;-82
2020/12/22 02:24:55;;;;;;;42.70;23.38;;;;;;;5.24;92.97;101380.50;5071190;28;20099;-82
2020/12/22 02:27:21;;;;;;;41.22;22.90;;;;;;;5.39;93.02;101400.19;5059947;28;20106;-82
2020/12/22 02:29:46;;;;;;;41.70;22.98;;;;;;;5.39;93.03;101416.13;5050102;28;20027;-82
2020/12/22 02:32:12;;;;;;;43.67;24.63;;;;;;;5.20;92.95;101392.25;5043137;28;20048;-82
2020/12/22 02:34:37;;;;;;;38.03;22.05;;;;;;;5.35;92.89;101406.59;5056465;28;20465;-82
2020/12/22 02:37:03;;;;;;;46.95;23.15;;;;;;;5.38;92.82;101417.91;5053418;28;20059;-83
2020/12/22 02:39:28;;;;;;;46.63;23.75;;;;;;;5.06;92.91;101362.78;5059483;28;20083;-82
2020/12/22 02:41:54;;;;;;;42.85;22.48;;;;;;;5.39;93.41;101410.81;5070910;28;20147;-82
2020/12/22 02:44:19;;;;;;;46.28;24.92;;;;;;;5.20;93.41;101370.09;5061948;28;20392;-82
2020/12/22 02:46:44;;;;;;;43.70;22.63;;;;;;;5.40;93.61;101396.56;5033720;28;20024;-82
2020/12/22 02:49:10;;;;;;;41.65;22.23;;;;;;;5.31;93.58;101384.59;5046631;28;20052;-82
2020/12/22 02:51:35;;;;;;;41.33;22.52;;;;;;;5.44;93.04;101414.97;5049051;28;20036;-82
2020/12/22 02:54:01;;;;;;;48.08;23.63;;;;;;;5.16;93.80;101352.56;5052814;28;20439;-82
2020/12/22 02:56:26;;;;;;;45.60;23.42;;;;;;;4.97;93.31;101323.38;5042309;28;20021;-82
2020/12/22 02:58:52;;;;;;;44.78;23.80;;;;;;;5.37;93.57;101388.72;5053318;28;20376;-82
2020/12/22 03:01:18;;;;;;;41.75;22.60;;;;;;;5.33;93.38;101396.03;5037476;28;20245;-82
2020/12/22 03:03:45;;;;;;;43.67;22.80;;;;;;;5.25;93.25;101376.06;5049967;28;20595;-82
2020/12/22 03:06:10;;;;;;;43.08;23.60;;;;;;;5.03;93.29;101336.34;5055016;28;20115;-82
2020/12/22 03:08:36;;;;;;;45.70;24.75;;;;;;;5.32;93.84;101385.47;5074022;28;20162;-82
2020/12/22 03:11:02;;;;;;;43.03;22.73;;;;;;;5.18;93.38;101364.84;5044255;28;20124;-82
2020/12/22 03:13:28;;;;;;;42.63;23.52;;;;;;;5.20;93.37;101357.66;5064730;28;20021;-82
2020/12/22 03:15:53;;;;;;;40.47;22.73;;;;;;;5.39;93.59;101387.75;5044472;28;20040;-82
2020/12/22 03:18:18;;;;;;;45.67;23.38;;;;;;;5.41;93.28;101380.53;5033061;28;20025;-82
2020/12/22 03:20:45;;;;;;;43.20;22.88;;;;;;;5.45;93.54;101394.56;5050524;28;20471;-82
2020/12/22 03:23:11;;;;;;;43.13;23.45;;;;;;;5.41;93.52;101392.97;5040484;28;20029;-82
2020/12/22 03:25:37;;;;;;;44.17;22.77;;;;;;;5.40;93.59;101389.47;5048465;28;20028;-82
2020/12/22 03:28:03;;;;;;;45.13;23.58;;;;;;;5.29;93.72;101378.47;5052551;28;20111;-82
2020/12/22 03:30:28;;;;;;;42.15;23.40;;;;;;;5.33;93.58;101380.06;5065573;28;20499;-81
2020/12/22 03:32:54;;;;;;;42.78;22.45;;;;;;;5.24;93.57;101374.31;5041084;28;20520;-82
2020/12/22 03:35:19;;;;;;;43.67;23.17;;;;;;;5.17;94.10;101360.47;5045482;28;20475;-82
2020/12/22 03:37:45;;;;;;;43.55;22.52;;;;;;;5.38;93.79;101396.63;5032541;28;20048;-82
2020/12/22 03:40:12;;;;;;;39.35;22.73;;;;;;;5.38;94.06;101393.97;5057624;28;20082;-82
2020/12/22 03:42:38;;;;;;;44.00;23.92;;;;;;;5.19;94.10;101371.88;5040890;28;20021;-82
2020/12/22 03:45:08;;;;;;;41.97;23.15;;;;;;;5.36;94.08;101395.00;5040850;28;20107;-83
2020/12/22 03:47:34;;;;;;;39.47;21.60;;;;;;;5.35;93.88;101393.28;5041931;28;20031;-82
2020/12/22 03:50:00;;;;;;;42.63;23.20;;;;;;;5.19;93.89;101357.75;5036774;28;20025;-82
2020/12/22 03:52:25;;;;;;;42.03;22.38;;;;;;;5.29;93.83;101382.94;5042361;28;20055;-82
2020/12/22 03:54:51;;;;;;;40.08;21.25;;;;;;;5.23;93.89;101370.81;5040451;28;20028;-82
2020/12/22 03:57:16;;;;;;;38.03;22.17;;;;;;;5.24;93.69;101372.53;5031199;28;20059;-82
2020/12/22 03:59:43;;;;;;;39.97;21.95;;;;;;;5.18;93.73;101351.56;5035000;28;20031;-82
2020/12/22 04:02:08;;;;;;;39.50;22.10;;;;;;;5.34;93.26;101379.13;5047208;28;20025;-82
2020/12/22 04:04:34;;;;;;;44.28;23.05;;;;;;;5.36;93.33;101379.91;5032893;28;20039;-82
2020/12/22 04:07:00;;;;;;;42.28;22.30;;;;;;;5.25;93.67;101349.47;5032339;28;20025;-82
2020/12/22 04:09:25;;;;;;;38.63;21.58;;;;;;;5.08;93.41;101314.84;5031812;28;20021;-82
2020/12/22 04:11:51;;;;;;;41.80;21.85;;;;;;;5.03;93.69;101285.84;5032686;28;20031;-82
2020/12/22 04:14:19;;;;;;;47.53;23.50;;;;;;;5.37;93.95;101333.75;5054236;28;20481;-81
2020/12/22 04:16:45;;;;;;;44.78;23.13;;;;;;;5.30;93.61;101327.03;5050453;28;20238;-82
2020/12/22 04:19:11;;;;;;;40.92;22.17;;;;;;;5.18;93.17;101319.66;5032681;28;20037;-82
2020/12/22 04:21:37;;;;;;;42.15;23.13;;;;;;;5.30;93.47;101345.63;5033156;28;20036;-80
2020/12/22 04:24:03;;;;;;;40.33;21.70;;;;;;;5.29;93.95;101349.22;5031962;28;20103;-80
2020/12/22 04:26:29;;;;;;;42.97;22.15;;;;;;;5.13;93.87;101323.47;5033363;28;20443;-80
2020/12/22 04:28:55;;;;;;;36.15;20.85;;;;;;;4.94;93.53;101290.75;5037118;28;20028;-79
2020/12/22 04:31:24;;;;;;;40.33;20.83;;;;;;;5.29;93.52;101359.84;5046477;28;20021;-80
2020/12/22 04:33:50;;;;;;;41.83;22.83;;;;;;;4.99;93.52;101302.88;5043987;28;20389;-80
2020/12/22 04:36:16;;;;;;;40.45;22.08;;;;;;;5.27;93.07;101348.44;5040329;28;20029;-80
2020/12/22 04:38:42;;;;;;;42.35;22.55;;;;;;;5.23;93.37;101327.41;5040903;28;20072;-79
2020/12/22 04:41:12;;;;;;;38.80;21.02;;;;;;;5.25;93.46;101325.53;5062649;28;20380;-79
2020/12/22 04:43:40;;;;;;;39.03;20.85;;;;;;;5.22;93.76;101318.53;5042605;28;20060;-79
2020/12/22 04:46:07;;;;;;;39.17;19.58;;;;;;;5.23;93.42;101322.94;5062251;28;20418;-80
2020/12/22 04:48:38;;;;;;;39.47;20.83;;;;;;;4.91;93.50;101264.31;5044640;28;20774;-80
2020/12/22 04:51:08;;;;;;;36.92;19.80;;;;;;;5.13;93.30;101296.88;5040691;28;20484;-80
2020/12/22 04:53:35;;;;;;;37.40;19.25;;;;;;;5.21;92.42;101305.31;5042618;28;20074;-80
2020/12/22 04:56:09;;;;;;;35.75;19.17;;;;;;;5.01;92.12;101274.44;5061360;28;20028;-79
2020/12/22 04:58:35;;;;;;;34.17;18.80;;;;;;;5.21;91.83;101311.53;5056910;28;20040;-80
2020/12/22 05:01:01;;;;;;;34.97;18.75;;;;;;;4.86;91.39;101248.59;5038334;28;20065;-81
2020/12/22 05:03:26;;;;;;;32.53;18.35;;;;;;;4.46;91.17;101179.78;5041619;28;20029;-81
2020/12/22 05:05:53;;;;;;;35.03;18.80;;;;;;;5.17;91.35;101296.66;5042837;28;20039;-81
2020/12/22 05:08:19;;;;;;;34.45;18.75;;;;;;;5.13;91.48;101297.75;5062516;28;20037;-81
2020/12/22 05:10:50;;;;;;;34.70;18.80;;;;;;;5.17;91.51;101298.44;5060225;28;20024;-82
2020/12/22 05:13:17;;;;;;;36.63;20.08;;;;;;;5.10;91.44;101294.38;5042765;28;20028;-82
2020/12/22 05:15:43;;;;;;;33.38;18.23;;;;;;;4.99;91.10;101263.00;5063294;28;20094;-82
2020/12/22 05:18:10;;;;;;;35.50;20.52;;;;;;;4.98;91.20;101273.72;5071889;28;20040;-82
2020/12/22 05:20:42;;;;;;;30.80;18.33;;;;;;;4.99;90.87;101270.97;5054689;28;20032;-81
2020/12/22 05:23:16;;;;;;;32.20;18.20;;;;;;;5.03;91.22;101269.03;5065671;28;20368;-82
2020/12/22 05:25:43;;;;;;;34.95;18.75;;;;;;;4.95;91.13;101266.75;5038282;28;20554;-82
2020/12/22 05:28:12;;;;;;;34.22;18.92;;;;;;;5.00;91.59;101280.66;5059956;28;20510;-82
2020/12/22 05:30:37;;;;;;;33.30;17.80;;;;;;;5.01;91.46;101294.81;5036581;28;20013;-82
2020/12/22 05:33:04;;;;;;;34.50;18.73;;;;;;;5.01;91.04;101298.34;5045527;28;20033;-82
2020/12/22 05:35:37;;;;;;;35.80;19.58;;;;;;;4.99;91.74;101288.75;5055857;28;20024;-79
2020/12/22 05:38:05;;;;;;;35.50;18.33;;;;;;;4.88;91.82;101277.75;5032987;28;20049;-80
2020/12/22 05:40:31;;;;;;;33.17;18.20;;;;;;;4.92;91.89;101279.31;5033216;28;20048;-79
2020/12/22 05:42:57;;;;;;;33.28;20.10;;;;;;;4.84;91.65;101257.59;5033133;28;20389;-79
2020/12/22 05:45:23;;;;;;;36.05;18.60;;;;;;;4.73;91.92;101253.69;5034658;28;20029;-79
2020/12/22 05:47:53;;;;;;;35.05;19.98;;;;;;;4.98;92.28;101284.34;5033679;28;20025;-79
2020/12/22 05:50:20;;;;;;;32.83;18.58;;;;;;;4.90;92.18;101276.75;5034959;28;20029;-79
2020/12/22 05:52:46;;;;;;;36.10;19.13;;;;;;;4.91;91.96;101281.16;5033289;28;20381;-79
2020/12/22 05:55:11;;;;;;;38.83;18.88;;;;;;;4.97;92.12;101299.47;5034907;28;20037;-80
2020/12/22 05:57:37;;;;;;;38.53;18.60;;;;;;;4.96;92.21;101294.22;5034306;28;20021;-79
2020/12/22 06:00:14;;;;;;;34.53;18.73;;;;;;;4.88;92.20;101281.28;5035526;28;20181;-79
2020/12/22 06:02:41;;;;;;;34.42;18.08;;;;;;;4.80;92.05;101269.31;5033016;28;20029;-79
2020/12/22 06:05:07;;;;;;;31.77;18.40;;;;;;;4.96;92.17;101308.34;5032759;28;20036;-79
2020/12/22 06:07:33;;;;;;;35.22;18.02;;;;;;;4.65;92.42;101255.00;5041851;28;20010;-81
2020/12/22 06:09:59;;;;;;;34.20;17.05;;;;;;;4.85;92.40;101301.84;5052537;28;20025;-81
2020/12/22 06:12:25;;;;;;;34.10;17.25;;;;;;;4.68;92.69;101282.25;5051852;28;20049;-81
2020/12/22 06:14:53;;;;;;;35.72;19.35;;;;;;;4.89;92.69;101314.91;5052404;28;20045;-81
2020/12/22 06:17:20;;;;;;;31.30;17.15;;;;;;;4.59;92.63;101274.72;5052473;28;20006;-81
2020/12/22 06:19:46;;;;;;;33.97;18.50;;;;;;;4.82;92.27;101310.81;5053695;28;20039;-81
2020/12/22 06:22:14;;;;;;;31.10;16.92;;;;;;;4.95;92.45;101324.38;5052538;28;20026;-81
2020/12/22 06:24:40;;;;;;;32.38;18.05;;;;;;;4.87;92.69;101316.75;5052740;28;20073;-81
2020/12/22 06:27:07;;;;;;;34.85;18.40;;;;;;;4.78;92.63;101306.59;5048268;28;20037;-82
2020/12/22 06:29:34;;;;;;;34.38;18.25;;;;;;;4.83;92.83;101319.66;5034276;28;20029;-80
2020/12/22 06:32:29;;;;;;;38.22;18.73;;;;;;;4.78;93.07;101306.59;5048235;28;20073;-79
2020/12/22 06:35:33;;;;;;;36.85;19.15;;;;;;;4.91;93.27;101317.47;5028789;28;20032;-80
2020/12/22 06:37:59;;;;;;;35.85;18.90;;;;;;;4.70;93.20;101292.81;5040715;28;20042;-80
2020/12/22 06:40:53;;;;;;;35.33;19.02;;;;;;;4.93;93.47;101332.41;5044965;28;20061;-80
2020/12/22 06:43:41;;;;;;;37.30;19.45;;;;;;;4.68;93.29;101292.03;5039638;28;20086;-80
2020/12/22 06:46:08;;;;;;;36.22;18.55;;;;;;;4.94;93.44;101341.25;5039324;28;20018;-80
2020/12/22 06:48:46;;;;;;;36.38;19.08;;;;;;;4.86;93.61;101323.03;5045002;28;20044;-82
2020/12/22 06:51:32;;;;;;;34.90;19.20;;;;;;;4.83;93.59;101309.03;5043448;28;20029;-82
2020/12/22 06:54:17;;;;;;;35.28;18.80;;;;;;;4.94;93.57;101322.66;5039130;28;20013;-82
2020/12/22 06:56:47;;;;;;;38.42;19.15;;;;;;;4.94;93.66;101328.84;5039746;28;20106;-81
2020/12/22 06:59:33;;;;;;;40.55;19.25;;;;;;;4.85;93.14;101308.03;5042336;28;20030;-82
2020/12/22 07:02:00;;;;;;;34.25;19.40;;;;;;;4.91;93.32;101321.00;5042674;28;20315;-82
2020/12/22 07:04:25;;;;;;;38.42;20.63;;;;;;;4.84;92.94;101311.63;5036070;28;20026;-82
2020/12/22 07:07:02;;;;;;;37.40;19.52;;;;;;;4.73;93.18;101300.63;5021698;28;20025;-82
2020/12/22 07:09:33;;;;;;;33.97;18.70;;;;;;;4.97;93.43;101342.00;5022594;28;20018;-82
2020/12/22 07:12:08;;;;;;;34.65;19.33;;;;;;;4.99;93.17;101339.25;5018391;28;20121;-82
2020/12/22 07:14:36;;;;;;;35.53;18.45;;;;;;;4.71;92.86;101297.22;5014767;28;20057;-82
2020/12/22 07:17:03;;;;;;;34.47;18.42;;;;;;;4.93;93.07;101334.22;5029591;28;20497;-82
2020/12/22 07:19:31;;;;;;;33.92;18.67;;;;;;;4.90;92.85;101329.91;5024460;28;20037;-82
2020/12/22 07:22:05;;;;;;;33.38;19.15;;;;;;;5.03;92.71;101346.13;5029814;28;20477;-83
2020/12/22 07:24:37;;;;;;;31.98;17.42;;;;;;;5.02;92.52;101337.28;5024032;28;20025;-82
2020/12/22 07:27:04;;;;;;;31.80;18.38;;;;;;;5.02;92.71;101333.75;5027450;28;20044;-82
2020/12/22 07:29:29;;;;;;;38.63;19.35;;;;;;;4.89;92.30;101306.94;5023147;28;20033;-82
2020/12/22 07:31:59;;;;;;;35.10;18.50;;;;;;;4.94;92.71;101314.69;5023918;28;20041;-83
2020/12/22 07:34:25;;;;;;;36.80;19.27;;;;;;;5.06;92.29;101330.03;5019868;28;20026;-83
2020/12/22 07:36:51;;;;;;;34.05;19.50;;;;;;;5.02;92.30;101325.78;5025157;28;20103;-82
2020/12/22 07:39:23;;;;;;;36.10;18.92;;;;;;;4.85;92.37;101292.06;5018063;28;20021;-82
2020/12/22 07:41:50;;;;;;;32.50;18.02;;;;;;;4.93;92.93;101311.16;5025667;28;20030;-82
2020/12/22 07:44:18;;;;;;;33.45;17.73;;;;;;;4.88;92.62;101299.91;5021473;28;20401;-82
2020/12/22 07:46:45;;;;;;;38.72;18.48;;;;;;;4.81;92.96;101282.53;5023947;28;20021;-81
2020/12/22 07:49:13;;;;;;;37.70;18.95;;;;;;;4.64;92.33;101251.47;5021439;28;20033;-81
2020/12/22 07:51:46;;;;;;;36.97;19.05;;;;;;;4.96;92.30;101292.41;5019903;28;20104;-82
2020/12/22 07:54:12;;;;;;;34.70;19.30;;;;;;;5.01;92.28;101290.38;5019570;28;20665;-82
2020/12/22 07:56:39;;;;;;;37.72;19.17;;;;;;;5.13;92.06;101303.09;5014983;28;20032;-82
2020/12/22 07:59:16;;;;;;;36.97;18.85;;;;;;;4.92;91.96;101261.59;5027419;28;20470;-82
2020/12/22 08:01:46;;;;;;;31.05;17.70;;;;;;;4.69;92.04;101224.66;5024599;28;20025;-83
2020/12/22 08:04:23;;;;;;;30.85;17.45;;;;;;;4.76;92.09;101228.75;5021514;28;20051;-82
2020/12/22 08:07:03;;;;;;;34.50;18.13;;;;;;;5.03;92.13;101275.19;5025395;28;20051;-82
2020/12/22 08:09:33;;;;;;;37.72;17.92;;;;;;;5.04;92.03;101263.66;5018984;28;20030;-83
2020/12/22 08:12:04;;;;;;;45.92;21.20;;;;;;;5.00;91.92;101250.59;5019947;28;20464;-82
2020/12/22 08:14:37;;;;;;;46.67;23.38;;;;;;;5.12;91.84;101263.28;5025841;28;20082;-83
2020/12/22 08:17:12;;;;;;;39.88;20.42;;;;;;;4.98;92.08;101239.16;5019511;28;20022;-83
2020/12/22 08:19:38;;;;;;;;;;;;;;;5.31;92.10;101299.47;5022609;28;20053;-83
2020/12/22 08:22:06;;;;;;;38.53;19.27;;;;;;;5.32;92.38;101298.53;5020578;28;19917;-83
2020/12/22 08:24:36;;;;;;;41.70;19.38;;;;;;;5.22;92.19;101280.47;5019264;28;20036;-83
2020/12/22 08:27:04;;;;;;;33.55;19.08;;;;;;;5.37;92.01;101306.28;5021395;28;20472;-83
2020/12/22 08:29:29;;;;;;;35.03;17.60;;;;;;;5.12;92.14;101274.75;5024442;28;20103;-83
2020/12/22 08:31:59;;;;;;;31.60;17.27;;;;;;;5.37;91.96;101317.78;5023885;28;20029;-83
2020/12/22 08:34:25;;;;;;;35.40;18.45;;;;;;;5.29;91.62;101298.69;5025075;28;20037;-83
2020/12/22 08:36:50;;;;;;;32.13;17.90;;;;;;;5.24;91.69;101306.03;5025692;28;20045;-83
2020/12/22 08:39:21;;;;;;;33.75;17.58;;;;;;;5.32;92.04;101309.16;5017806;28;20061;-83
2020/12/22 08:41:54;;;;;;;31.10;17.52;;;;;;;5.36;92.35;101307.22;5025463;28;20667;-83
2020/12/22 08:44:20;;;;;;;40.58;19.10;;;;;;;4.87;91.84;101229.06;5020254;28;20688;-82
2020/12/22 08:46:47;;;;;;;36.05;17.88;;;;;;;5.35;91.93;101303.69;5025556;28;20100;-82
2020/12/22 08:49:18;;;;;;;31.98;17.17;;;;;;;5.20;91.82;101269.03;5021544;28;20051;-83
2020/12/22 08:51:44;;;;;;;29.45;17.08;;;;;;;5.38;92.63;101300.03;5027856;28;20083;-83
2020/12/22 08:54:11;;;;;;;33.00;18.33;;;;;;;4.82;92.53;101201.88;5025200;28;20089;-82
2020/12/22 08:56:37;;;;;;;31.73;17.45;;;;;;;5.36;92.71;101294.81;5025414;28;20082;-83
2020/12/22 08:59:11;;;;;;;32.45;17.08;;;;;;;5.26;92.80;101258.09;5026787;28;20025;-83
2020/12/22 09:01:45;;;;;;;36.25;19.02;;;;;;;5.28;93.28;101265.06;5025569;28;20473;-83
2020/12/22 09:04:12;;;;;;;32.08;18.70;;;;;;;5.32;93.90;101271.09;5025096;28;20755;-82
2020/12/22 09:06:46;;;;;;;36.35;18.90;;;;;;;5.28;93.45;101267.72;5027671;28;20021;-83
2020/12/22 09:09:17;;;;;;;35.75;20.38;;;;;;;5.33;93.43;101278.13;5025233;28;20030;-83
2020/12/22 09:11:44;;;;;;;37.30;19.67;;;;;;;5.31;93.30;101264.91;5025590;28;20030;-82
2020/12/22 09:14:12;;;;;;;35.40;19.50;;;;;;;5.37;93.51;101280.53;5024522;28;20474;-80
2020/12/22 09:16:48;;;;;;;33.03;18.88;;;;;;;5.03;93.27;101226.50;5026200;28;20516;-80
2020/12/22 09:19:16;;;;;;;33.55;18.67;;;;;;;5.24;93.33;101246.66;5020046;28;20064;-80
2020/12/22 09:21:41;;;;;;;32.80;17.55;;;;;;;5.39;93.05;101273.38;5027571;28;20481;-80
2020/12/22 09:24:07;;;;;;;31.20;18.05;;;;;;;5.44;93.43;101284.63;5025436;28;20033;-80
2020/12/22 09:26:33;;;;;;;33.40;18.27;;;;;;;5.25;92.80;101238.63;5022819;28;20061;-80
2020/12/22 09:28:59;;;;;;;34.03;19.05;;;;;;;5.45;92.68;101256.22;5027423;28;20049;-80
2020/12/22 09:31:26;;;;;;;30.33;17.63;;;;;;;5.46;92.80;101240.19;5024077;28;20044;-80
2020/12/22 09:33:52;;;;;;;30.75;17.45;;;;;;;5.08;92.37;101171.28;5022674;28;20036;-80
2020/12/22 09:36:17;;;;;;;31.92;17.92;;;;;;;5.48;92.07;101237.44;5028031;28;20026;-80
2020/12/22 09:38:43;;;;;;;33.42;19.23;;;;;;;5.48;92.28;101240.94;5065462;28;20039;-80
2020/12/22 09:41:08;;;;;;;33.75;18.67;;;;;;;5.42;92.18;101229.78;5044485;28;20079;-80
2020/12/22 09:43:34;;;;;;;33.70;17.85;;;;;;;5.38;92.71;101229.06;5048420;28;20029;-79
2020/12/22 09:45:59;;;;;;;37.60;18.88;;;;;;;4.90;92.57;101146.50;5041094;28;20037;-80
2020/12/22 09:48:25;;;;;;;37.47;18.73;;;;;;;5.47;92.89;101241.03;5048038;28;20028;-80
2020/12/22 09:50:50;;;;;;;38.97;19.77;;;;;;;5.46;93.22;101240.19;5045451;28;20024;-80
2020/12/22 09:53:16;;;;;;;35.88;19.67;;;;;;;5.03;93.02;101163.53;5064158;28;20017;-80
2020/12/22 09:55:42;;;;;;;34.78;18.40;;;;;;;5.24;93.59;101207.66;5048664;28;20028;-80
2020/12/22 09:58:07;;;;;;;36.65;19.88;;;;;;;5.49;94.57;101231.16;5047401;28;20028;-80
2020/12/22 10:00:33;;;;;;;32.42;18.00;;;;;;;5.37;95.03;101210.53;5045848;28;20376;-80
2020/12/22 10:02:58;;;;;;;33.83;18.33;;;;;;;5.18;94.75;101168.09;5049256;28;20021;-80
2020/12/22 10:05:23;;;;;;;30.45;18.27;;;;;;;5.27;94.60;101194.19;5046398;28;20029;-80
2020/12/22 10:07:49;;;;;;;32.05;18.15;;;;;;;5.47;94.79;101223.25;5060819;28;20024;-81
2020/12/22 10:10:14;;;;;;;29.60;17.88;;;;;;;5.29;95.13;101192.28;5047200;28;20028;-81
2020/12/22 10:12:40;;;;;;;33.78;20.05;;;;;;;5.27;95.30;101195.97;5065702;28;20025;-81
2020/12/22 10:15:05;;;;;;;33.70;18.20;;;;;;;5.30;95.88;101194.03;5047380;28;20489;-80
2020/12/22 10:17:31;;;;;;;36.50;19.73;;;;;;;5.18;96.94;101175.19;5046867;28;20137;-80
2020/12/22 10:19:56;;;;;;;32.03;18.45;;;;;;;5.29;96.91;101191.47;5045536;28;20043;-80
2020/12/22 10:22:22;;;;;;;35.63;20.05;;;;;;;5.40;97.04;101211.22;5045479;28;20499;-80
2020/12/22 10:24:47;;;;;;;37.15;19.67;;;;;;;5.37;97.07;101206.06;5044452;28;20021;-84
2020/12/22 10:27:13;;;;;;;38.67;21.08;;;;;;;5.36;97.41;101206.16;5047949;28;20036;-83
2020/12/22 10:29:38;;;;;;;32.17;18.70;;;;;;;5.13;97.79;101171.91;5047274;28;20044;-83
2020/12/22 10:32:04;;;;;;;36.42;19.63;;;;;;;5.09;98.02;101168.53;5042093;28;20036;-82
2020/12/22 10:34:29;;;;;;;36.45;18.70;;;;;;;5.33;98.32;101207.19;5044178;28;20035;-84
2020/12/22 10:36:56;;;;;;;39.60;20.52;;;;;;;5.21;98.98;101189.19;5066907;28;20120;-84
2020/12/22 10:39:22;;;;;;;37.33;20.95;;;;;;;5.17;99.17;101177.00;5044862;28;20061;-83
2020/12/22 10:41:48;;;;;;;37.60;21.00;;;;;;;5.18;99.54;101162.75;5046358;28;20039;-84
2020/12/22 10:44:13;;;;;;;40.92;21.15;;;;;;;5.20;99.46;101160.88;5049075;28;20038;-84
2020/12/22 10:46:39;;;;;;;36.92;21.80;;;;;;;5.09;99.20;101126.00;5059220;28;20043;-84
2020/12/22 10:49:04;;;;;;;39.97;21.02;;;;;;;5.24;99.50;101145.63;5047862;28;20048;-84
2020/12/22 10:51:31;;;;;;;39.90;20.67;;;;;;;5.17;98.63;101118.50;5045972;28;20032;-83
2020/12/22 10:53:57;;;;;;;41.65;22.33;;;;;;;5.32;99.31;101146.94;5046224;28;20025;-84
2020/12/22 10:56:23;;;;;;;36.17;19.95;;;;;;;5.32;98.81;101141.59;5060045;28;20218;-84
2020/12/22 10:58:48;;;;;;;40.55;20.63;;;;;;;5.21;98.12;101119.19;5045455;28;20104;-83
2020/12/22 11:01:17;;;;;;;42.38;21.40;;;;;;;5.20;97.46;101101.53;5049444;28;20036;-84
2020/12/22 11:03:43;;;;;;;39.03;20.92;;;;;;;5.44;97.54;101150.72;5049898;28;20028;-83
2020/12/22 11:06:18;;;;;;;41.95;22.77;;;;;;;5.41;97.41;101134.94;5052569;28;20185;-84
2020/12/22 11:08:44;;;;;;;39.88;22.23;;;;;;;5.44;98.03;101142.75;5047229;28;20464;-83
2020/12/22 11:11:10;;;;;;;38.58;21.05;;;;;;;5.44;97.27;101127.66;5063743;28;20062;-85
2020/12/22 11:13:36;;;;;;;39.88;21.08;;;;;;;5.47;97.23;101134.59;5042822;28;20032;-84
2020/12/22 11:16:07;;;;;;;38.85;22.10;;;;;;;5.38;96.64;101119.16;5064373;28;20108;-84
2020/12/22 11:18:33;;;;;;;35.47;20.30;;;;;;;5.49;96.67;101133.59;5046596;28;20032;-83